createdAt,value
2023-04-01T00:01:21.035Z,97.93
2023-04-01T00:03:49.317Z,99.17
2023-04-01T00:06:19.113Z,98.47
2023-04-01T00:08:47.314Z,99.52
2023-04-01T00:11:17.975Z,99.20
2023-04-01T00:13:48.641Z,98.68
2023-04-01T00:16:22.348Z,100.00
2023-04-01T00:18:51.785Z,99.67
2023-04-01T00:21:22.990Z,99.86
2023-04-01T00:23:53.598Z,100.00
2023-04-01T00:26:23.874Z,100.00
2023-04-01T00:28:51.974Z,99.81
2023-04-01T00:31:19.875Z,100.00
2023-04-01T00:33:47.544Z,99.92
2023-04-01T00:36:17.910Z,99.93
2023-04-01T00:38:46.879Z,100.00
2023-04-01T00:41:16.600Z,100.00
2023-04-01T00:43:52.849Z,100.00
2023-04-01T00:46:21.245Z,100.00
2023-04-01T00:48:57.618Z,100.00
2023-04-01T00:51:31.827Z,100.00
2023-04-01T00:54:02.827Z,100.00
2023-04-01T00:56:36.549Z,100.00
2023-04-01T00:59:11.874Z,100.00
2023-04-01T01:01:39.743Z,100.00
2023-04-01T01:04:08.198Z,100.00
2023-04-01T01:07:13.480Z,100.00
2023-04-01T01:10:02.596Z,100.00
2023-04-01T01:12:55.922Z,100.00
2023-04-01T01:15:44.538Z,100.00
2023-04-01T01:18:17.852Z,100.00
2023-04-01T01:21:23.541Z,100.00
2023-04-01T01:24:12.467Z,100.00
2023-04-01T01:26:56.183Z,100.00
2023-04-01T01:29:23.743Z,100.00
2023-04-01T01:32:09.824Z,100.00
2023-04-01T01:34:46.504Z,99.50
2023-04-01T01:37:18.369Z,98.90
2023-04-01T01:40:03.400Z,99.22
2023-04-01T01:42:33.676Z,99.35
2023-04-01T01:45:03.748Z,99.65
2023-04-01T01:47:31.759Z,100.00
2023-04-01T01:49:59.873Z,100.00
2023-04-01T01:52:30.372Z,100.00
2023-04-01T01:54:59.392Z,100.00
2023-04-01T01:57:38.528Z,99.58
2023-04-01T02:00:14.889Z,99.90
2023-04-01T02:02:49.617Z,99.06
2023-04-01T02:05:21.893Z,98.58
2023-04-01T02:07:56.478Z,98.94
2023-04-01T02:10:27.154Z,99.09
2023-04-01T02:12:59.915Z,98.64
2023-04-01T02:15:31.868Z,98.37
2023-04-01T02:17:59.870Z,98.25
2023-04-01T02:20:31.719Z,97.78
2023-04-01T02:23:01.009Z,97.32
2023-04-01T02:25:32.936Z,97.57
2023-04-01T02:28:05.947Z,97.38
2023-04-01T02:30:36.321Z,97.19
2023-04-01T02:33:07.992Z,96.96
2023-04-01T02:35:38.345Z,96.87
2023-04-01T02:38:07.147Z,96.74
2023-04-01T02:40:51.882Z,96.14
2023-04-01T02:43:20.749Z,96.44
2023-04-01T02:45:48.376Z,96.22
2023-04-01T02:48:16.102Z,96.23
2023-04-01T02:50:43.910Z,95.59
2023-04-01T02:53:12.352Z,95.23
2023-04-01T02:55:40.681Z,94.32
2023-04-01T02:58:10.641Z,94.21
2023-04-01T03:00:38.312Z,94.49
2023-04-01T03:03:06.412Z,94.54
2023-04-01T03:05:34.312Z,94.49
2023-04-01T03:08:02.224Z,94.82
2023-04-01T03:10:29.844Z,94.64
2023-04-01T03:12:57.529Z,94.65
2023-04-01T03:15:25.337Z,94.67
2023-04-01T03:17:53.419Z,94.22
2023-04-01T03:20:23.194Z,94.41
2023-04-01T03:22:50.828Z,94.64
2023-04-01T03:25:18.539Z,95.14
2023-04-01T03:27:46.320Z,94.85
2023-04-01T03:30:15.266Z,94.66
2023-04-01T03:32:43.153Z,95.12
2023-04-01T03:35:11.406Z,94.76
2023-04-01T03:37:39.449Z,94.67
2023-04-01T03:40:07.927Z,94.93
2023-04-01T03:42:36.295Z,94.83
2023-04-01T03:45:07.454Z,95.31
2023-04-01T03:47:35.098Z,95.36
2023-04-01T03:50:02.893Z,95.18
2023-04-01T03:52:30.494Z,95.45
2023-04-01T03:54:58.143Z,95.46
2023-04-01T03:57:25.931Z,96.10
2023-04-01T03:59:53.570Z,95.86
2023-04-01T04:02:26.283Z,95.87
2023-04-01T04:04:53.984Z,95.77
2023-04-01T04:07:21.590Z,96.11
2023-04-01T04:09:49.701Z,96.46
2023-04-01T04:12:17.289Z,95.90
2023-04-01T04:14:44.897Z,96.31
2023-04-01T04:17:17.160Z,96.41
2023-04-01T04:19:45.487Z,96.61
2023-04-01T04:22:13.100Z,97.17
2023-04-01T04:24:42.894Z,97.20
2023-04-01T04:27:10.761Z,97.32
2023-04-01T04:29:38.408Z,97.50
2023-04-01T04:32:06.336Z,97.73
2023-04-01T04:34:34.371Z,97.80
2023-04-01T04:37:02.253Z,97.72
2023-04-01T04:39:32.220Z,97.92
2023-04-01T04:41:59.942Z,97.34
2023-04-01T04:44:29.882Z,97.33
2023-04-01T04:46:58.594Z,97.33
2023-04-01T04:49:26.519Z,97.08
2023-04-01T04:51:56.520Z,96.50
2023-04-01T04:54:24.136Z,96.44
2023-04-01T04:56:54.976Z,96.17
2023-04-01T04:59:25.359Z,96.05
2023-04-01T05:01:53.072Z,95.57
2023-04-01T05:04:20.967Z,95.20
2023-04-01T05:06:48.601Z,94.73
2023-04-01T05:09:17.168Z,93.94
2023-04-01T05:11:44.806Z,93.28
2023-04-01T05:14:17.335Z,92.48
2023-04-01T05:16:47.174Z,92.15
2023-04-01T05:19:14.825Z,91.34
2023-04-01T05:21:42.408Z,90.63
2023-04-01T05:24:11.386Z,89.73
2023-04-01T05:26:39.052Z,88.88
2023-04-01T05:29:07.386Z,88.38
2023-04-01T05:31:35.502Z,88.06
2023-04-01T05:34:03.134Z,87.20
2023-04-01T05:36:31.359Z,86.53
2023-04-01T05:38:59.164Z,85.74
2023-04-01T05:41:29.375Z,84.85
2023-04-01T05:44:00.176Z,84.58
2023-04-01T05:46:31.103Z,84.79
2023-04-01T05:49:01.372Z,84.14
2023-04-01T05:51:29.034Z,84.00
2023-04-01T05:53:56.646Z,84.05
2023-04-01T05:56:25.138Z,83.61
2023-04-01T05:58:55.290Z,83.60
2023-04-01T06:01:28.304Z,82.79
2023-04-01T06:03:56.163Z,82.23
2023-04-01T06:06:29.565Z,81.83
2023-04-01T06:08:59.745Z,80.92
2023-04-01T06:11:45.040Z,80.89
2023-04-01T06:14:18.145Z,80.64
2023-04-01T06:16:57.728Z,79.82
2023-04-01T06:19:42.403Z,79.47
2023-04-01T06:22:40.877Z,78.94
2023-04-01T06:25:23.739Z,77.99
2023-04-01T06:28:23.579Z,78.27
2023-04-01T06:31:12.817Z,77.24
2023-04-01T06:33:53.051Z,75.72
2023-04-01T06:36:39.166Z,75.50
2023-04-01T06:39:35.905Z,74.81
2023-04-01T06:42:15.312Z,73.92
2023-04-01T06:44:51.636Z,73.58
2023-04-01T06:47:37.402Z,72.42
2023-04-01T06:50:29.041Z,70.32
2023-04-01T06:53:08.806Z,71.21
2023-04-01T06:55:48.200Z,71.11
2023-04-01T06:58:23.776Z,69.92
2023-04-01T07:00:58.855Z,70.16
2023-04-01T07:03:38.770Z,68.58
2023-04-01T07:06:12.505Z,68.26
2023-04-01T07:08:45.115Z,67.08
2023-04-01T07:11:21.872Z,67.25
2023-04-01T07:14:26.679Z,66.52
2023-04-01T07:17:03.047Z,65.05
2023-04-01T07:20:01.956Z,63.88
2023-04-01T07:22:37.296Z,64.23
2023-04-01T07:25:15.936Z,61.55
2023-04-01T07:27:47.578Z,61.08
2023-04-01T07:30:26.238Z,60.63
2023-04-01T07:33:13.376Z,58.71
2023-04-01T07:36:04.481Z,57.19
2023-04-01T07:38:59.038Z,55.71
2023-04-01T07:41:51.169Z,54.36
2023-04-01T07:44:23.360Z,51.54
2023-04-01T07:47:01.203Z,55.92
2023-04-01T07:49:40.390Z,58.61
2023-04-01T07:52:28.269Z,58.93
2023-04-01T07:55:36.608Z,59.38
2023-04-01T07:58:30.650Z,57.88
2023-04-01T08:01:08.494Z,56.11
2023-04-01T08:03:40.973Z,54.71
2023-04-01T08:06:21.575Z,55.73
2023-04-01T08:08:52.334Z,56.74
2023-04-01T08:11:54.011Z,56.43
2023-04-01T08:14:40.932Z,56.82
2023-04-01T08:17:22.641Z,57.51
2023-04-01T08:20:11.420Z,58.19
2023-04-01T08:22:53.242Z,58.34
2023-04-01T08:25:29.313Z,57.91
2023-04-01T08:28:40.188Z,57.92
2023-04-01T08:31:26.624Z,58.65
2023-04-01T08:33:56.933Z,58.17
2023-04-01T08:36:33.678Z,57.69
2023-04-01T08:39:11.614Z,57.35
2023-04-01T08:41:44.948Z,58.31
2023-04-01T08:44:21.400Z,58.53
2023-04-01T08:47:18.886Z,59.57
2023-04-01T08:49:57.583Z,59.98
2023-04-01T08:52:46.308Z,59.25
2023-04-01T08:55:28.929Z,59.22
2023-04-01T08:58:08.513Z,57.98
2023-04-01T09:00:48.670Z,57.89
2023-04-01T09:03:25.428Z,58.57
2023-04-01T09:06:30.647Z,58.27
2023-04-01T09:09:04.299Z,58.34
2023-04-01T09:11:48.181Z,57.47
2023-04-01T09:14:31.414Z,57.64
2023-04-01T09:17:23.333Z,56.93
2023-04-01T09:20:12.788Z,56.07
2023-04-01T09:22:51.945Z,57.27
2023-04-01T09:25:32.590Z,58.53
2023-04-01T09:28:12.353Z,58.50
2023-04-01T09:31:07.776Z,59.57
2023-04-01T09:34:14.354Z,60.13
2023-04-01T09:37:11.016Z,59.92
2023-04-01T09:39:44.887Z,60.47
2023-04-01T09:42:15.459Z,60.81
2023-04-01T09:44:57.616Z,60.90
2023-04-01T09:47:43.909Z,60.80
2023-04-01T09:50:37.766Z,60.18
2023-04-01T09:53:17.666Z,60.90
2023-04-01T09:56:04.495Z,61.52
2023-04-01T09:58:59.616Z,62.44
2023-04-01T10:01:30.101Z,62.22
2023-04-01T10:04:26.670Z,62.11
2023-04-01T10:07:13.306Z,62.26
2023-04-01T10:09:53.039Z,62.14
2023-04-01T10:12:32.247Z,62.24
2023-04-01T10:15:21.248Z,61.98
2023-04-01T10:18:22.654Z,62.13
2023-04-01T10:21:15.908Z,61.95
2023-04-01T10:23:49.319Z,62.09
2023-04-01T10:26:31.913Z,62.13
2023-04-01T10:29:33.779Z,62.49
2023-04-01T10:32:04.536Z,62.13
2023-04-01T10:34:51.472Z,61.95
2023-04-01T10:37:40.868Z,61.13
2023-04-01T10:40:26.991Z,58.27
2023-04-01T10:43:15.926Z,57.04
2023-04-01T10:45:59.630Z,57.09
2023-04-01T10:48:46.728Z,58.44
2023-04-01T10:51:27.679Z,58.56
2023-04-01T10:54:17.216Z,58.29
2023-04-01T10:56:49.409Z,57.79
2023-04-01T10:59:23.062Z,57.84
2023-04-01T11:02:11.516Z,57.98
2023-04-01T11:05:21.382Z,57.99
2023-04-01T11:08:21.320Z,58.25
2023-04-01T11:10:54.724Z,57.01
2023-04-01T11:13:46.672Z,55.87
2023-04-01T11:16:49.955Z,55.61
2023-04-01T11:19:46.668Z,55.18
2023-04-01T11:22:51.087Z,55.97
2023-04-01T11:25:26.801Z,54.91
2023-04-01T11:28:32.132Z,55.22
2023-04-01T11:31:02.684Z,53.49
2023-04-01T11:33:42.263Z,52.77
2023-04-01T11:36:39.100Z,53.05
2023-04-01T11:39:52.752Z,53.81
2023-04-01T11:42:37.507Z,53.91
2023-04-01T11:45:26.664Z,54.74
2023-04-01T11:48:12.467Z,55.87
2023-04-01T11:50:47.279Z,56.38
2023-04-01T11:53:46.568Z,57.02
2023-04-01T11:56:29.176Z,57.03
2023-04-01T11:59:08.900Z,56.89
2023-04-01T12:01:57.073Z,56.50
2023-04-01T12:04:49.525Z,56.53
2023-04-01T12:07:54.354Z,56.33
2023-04-01T12:10:41.245Z,55.41
2023-04-01T12:13:46.765Z,55.59
2023-04-01T12:16:45.568Z,54.79
2023-04-01T12:19:35.966Z,54.56
2023-04-01T12:22:25.736Z,54.08
2023-04-01T12:25:00.994Z,53.33
2023-04-01T12:27:57.905Z,52.97
2023-04-01T12:30:51.713Z,52.54
2023-04-01T12:33:38.586Z,53.29
2023-04-01T12:36:12.355Z,53.09
2023-04-01T12:38:52.286Z,52.93
2023-04-01T12:41:32.714Z,53.31
2023-04-01T12:44:12.314Z,53.01
2023-04-01T12:46:48.803Z,52.77
2023-04-01T12:49:22.283Z,52.52
2023-04-01T12:52:19.381Z,51.36
2023-04-01T12:54:55.698Z,51.30
2023-04-01T12:57:26.181Z,51.40
2023-04-01T13:00:26.295Z,50.30
2023-04-01T13:03:21.769Z,50.14
2023-04-01T13:05:49.375Z,47.87
2023-04-01T13:08:47.305Z,47.22
2023-04-01T13:11:34.335Z,46.24
2023-04-01T13:14:44.736Z,45.75
2023-04-01T13:17:33.652Z,45.39
2023-04-01T13:20:08.579Z,46.35
2023-04-01T13:23:12.194Z,47.95
2023-04-01T13:26:06.911Z,48.20
2023-04-01T13:29:02.698Z,49.09
2023-04-01T13:31:47.181Z,49.30
2023-04-01T13:34:23.885Z,49.74
2023-04-01T13:37:36.107Z,49.76
2023-04-01T13:40:49.362Z,50.67
2023-04-01T13:43:50.199Z,51.08
2023-04-01T13:46:30.059Z,51.81
2023-04-01T13:49:22.113Z,52.51
2023-04-01T13:52:30.315Z,53.05
2023-04-01T13:55:28.852Z,53.50
2023-04-01T13:58:18.425Z,53.52
2023-04-01T14:00:58.575Z,53.79
2023-04-01T14:03:49.658Z,54.16
2023-04-01T14:06:28.078Z,54.81
2023-04-01T14:09:23.409Z,55.24
2023-04-01T14:12:10.252Z,56.12
2023-04-01T14:15:08.585Z,55.86
2023-04-01T14:17:58.015Z,56.15
2023-04-01T14:20:25.702Z,56.96
2023-04-01T14:22:56.375Z,57.15
2023-04-01T14:25:54.825Z,57.67
2023-04-01T14:28:47.246Z,57.56
2023-04-01T14:31:20.776Z,57.59
2023-04-01T14:33:56.744Z,57.50
2023-04-01T14:36:53.121Z,57.38
2023-04-01T14:39:45.495Z,57.26
2023-04-01T14:42:26.050Z,57.81
2023-04-01T14:45:28.467Z,57.39
2023-04-01T14:48:19.990Z,57.41
2023-04-01T14:50:53.886Z,57.69
2023-04-01T14:53:29.044Z,56.99
2023-04-01T14:56:04.979Z,56.33
2023-04-01T14:58:47.525Z,55.38
2023-04-01T15:02:04.618Z,55.89
2023-04-01T15:04:56.890Z,55.20
2023-04-01T15:07:43.160Z,55.12
2023-04-01T15:10:31.892Z,55.57
2023-04-01T15:13:20.728Z,55.42
2023-04-01T15:16:06.020Z,55.60
2023-04-01T15:18:39.725Z,55.73
2023-04-01T15:21:18.123Z,55.24
2023-04-01T15:23:45.689Z,55.33
2023-04-01T15:26:41.451Z,54.92
2023-04-01T15:29:36.067Z,55.13
2023-04-01T15:32:29.395Z,54.84
2023-04-01T15:35:15.607Z,54.86
2023-04-01T15:38:01.410Z,55.30
2023-04-01T15:40:44.888Z,55.40
2023-04-01T15:43:23.235Z,55.53
2023-04-01T15:46:15.054Z,54.64
2023-04-01T15:49:01.355Z,53.84
2023-04-01T15:52:06.756Z,52.00
2023-04-01T15:54:52.549Z,52.78
2023-04-01T15:57:42.700Z,52.52
2023-04-01T16:00:28.743Z,51.63
2023-04-01T16:03:15.295Z,51.37
2023-04-01T16:05:59.990Z,50.82
2023-04-01T16:08:50.490Z,51.46
2023-04-01T16:11:28.817Z,51.16
2023-04-01T16:14:15.882Z,51.58
2023-04-01T16:17:05.984Z,51.72
2023-04-01T16:19:52.308Z,51.87
2023-04-01T16:22:33.748Z,51.80
2023-04-01T16:25:23.106Z,52.61
2023-04-01T16:28:15.742Z,51.82
2023-04-01T16:31:07.810Z,52.11
2023-04-01T16:33:38.168Z,52.21
2023-04-01T16:36:22.619Z,53.01
2023-04-01T16:39:12.110Z,53.28
2023-04-01T16:42:04.666Z,53.58
2023-04-01T16:44:32.530Z,53.61
2023-04-01T16:47:16.129Z,54.06
2023-04-01T16:49:58.665Z,54.23
2023-04-01T16:52:54.152Z,54.57
2023-04-01T16:55:24.414Z,55.30
2023-04-01T16:57:59.972Z,55.44
2023-04-01T17:00:40.730Z,55.20
2023-04-01T17:03:22.582Z,55.61
2023-04-01T17:06:05.452Z,55.88
2023-04-01T17:08:45.853Z,56.43
2023-04-01T17:11:29.885Z,57.33
2023-04-01T17:14:06.379Z,57.61
2023-04-01T17:16:55.714Z,59.24
2023-04-01T17:19:41.494Z,59.64
2023-04-01T17:22:43.284Z,60.19
2023-04-01T17:25:31.556Z,61.63
2023-04-01T17:28:01.900Z,62.75
2023-04-01T17:30:50.970Z,62.64
2023-04-01T17:33:57.476Z,63.37
2023-04-01T17:36:44.841Z,64.39
2023-04-01T17:39:51.298Z,65.96
2023-04-01T17:42:24.740Z,66.84
2023-04-01T17:45:07.730Z,66.44
2023-04-01T17:48:00.211Z,67.38
2023-04-01T17:50:36.279Z,68.00
2023-04-01T17:53:04.080Z,67.81
2023-04-01T17:55:40.965Z,68.04
2023-04-01T17:58:31.818Z,69.34
2023-04-01T18:01:02.624Z,70.26
2023-04-01T18:03:45.174Z,70.33
2023-04-01T18:06:34.074Z,70.89
2023-04-01T18:09:07.552Z,71.17
2023-04-01T18:11:53.798Z,71.26
2023-04-01T18:14:39.776Z,72.02
2023-04-01T18:17:25.897Z,72.37
2023-04-01T18:20:29.910Z,71.83
2023-04-01T18:23:21.292Z,71.94
2023-04-01T18:25:52.126Z,72.61
2023-04-01T18:28:26.002Z,71.84
2023-04-01T18:31:21.296Z,72.66
2023-04-01T18:34:09.652Z,72.25
2023-04-01T18:37:01.520Z,73.56
2023-04-01T18:39:41.974Z,73.19
2023-04-01T18:42:55.234Z,73.49
2023-04-01T18:45:28.723Z,72.51
2023-04-01T18:48:32.204Z,71.83
2023-04-01T18:51:12.736Z,71.36
2023-04-01T18:53:52.210Z,71.46
2023-04-01T18:56:28.931Z,71.09
2023-04-01T18:59:17.777Z,71.04
2023-04-01T19:01:59.718Z,71.38
2023-04-01T19:04:35.102Z,71.05
2023-04-01T19:07:19.716Z,71.15
2023-04-01T19:09:51.432Z,70.76
2023-04-01T19:12:37.588Z,71.09
2023-04-01T19:15:24.126Z,70.89
2023-04-01T19:18:14.701Z,71.58
2023-04-01T19:20:57.842Z,71.70
2023-04-01T19:23:53.537Z,72.08
2023-04-01T19:26:44.670Z,72.69
2023-04-01T19:29:15.532Z,72.70
2023-04-01T19:31:49.528Z,72.55
2023-04-01T19:34:54.777Z,72.73
2023-04-01T19:37:43.286Z,73.20
2023-04-01T19:40:37.078Z,73.52
2023-04-01T19:43:42.939Z,74.54
2023-04-01T19:46:16.578Z,74.58
2023-04-01T19:49:15.487Z,75.47
2023-04-01T19:52:11.166Z,76.10
2023-04-01T19:55:23.975Z,76.40
2023-04-01T19:58:06.958Z,77.11
2023-04-01T20:00:43.370Z,77.94
2023-04-01T20:03:18.092Z,78.04
2023-04-01T20:05:51.812Z,78.41
2023-04-01T20:09:04.105Z,79.14
2023-04-01T20:11:56.543Z,79.23
2023-04-01T20:14:48.976Z,79.97
2023-04-01T20:17:27.638Z,80.42
2023-04-01T20:20:01.428Z,80.15
2023-04-01T20:22:41.390Z,80.30
2023-04-01T20:25:25.882Z,80.43
2023-04-01T20:28:02.495Z,81.88
2023-04-01T20:30:42.100Z,80.93
2023-04-01T20:33:39.267Z,80.42
2023-04-01T20:36:15.835Z,81.50
2023-04-01T20:39:20.739Z,82.23
2023-04-01T20:41:56.453Z,82.56
2023-04-01T20:44:54.353Z,82.40
2023-04-01T20:47:43.751Z,82.43
2023-04-01T20:50:30.506Z,82.90
2023-04-01T20:52:58.124Z,83.52
2023-04-01T20:55:48.564Z,83.14
2023-04-01T20:58:44.493Z,83.39
2023-04-01T21:01:32.733Z,83.86
2023-04-01T21:04:34.572Z,85.08
2023-04-01T21:07:08.832Z,85.21
2023-04-01T21:09:42.588Z,85.67
2023-04-01T21:12:25.599Z,86.11
2023-04-01T21:15:24.009Z,85.78
2023-04-01T21:18:06.594Z,84.89
2023-04-01T21:21:04.758Z,84.60
2023-04-01T21:23:41.551Z,84.31
2023-04-01T21:26:44.576Z,82.62
2023-04-01T21:29:30.473Z,82.29
2023-04-01T21:32:21.564Z,81.20
2023-04-01T21:35:01.384Z,80.61
2023-04-01T21:37:53.019Z,79.57
2023-04-01T21:40:40.435Z,78.09
2023-04-01T21:43:23.072Z,77.54
2023-04-01T21:46:09.821Z,76.97
2023-04-01T21:48:46.663Z,76.74
2023-04-01T21:51:38.820Z,76.25
2023-04-01T21:54:34.191Z,75.43
2023-04-01T21:57:19.697Z,74.76
2023-04-01T21:59:47.293Z,74.51
2023-04-01T22:02:43.157Z,74.20
2023-04-01T22:05:25.165Z,74.23
2023-04-01T22:08:34.632Z,73.96
2023-04-01T22:11:55.561Z,73.58
2023-04-01T22:14:29.141Z,73.76
2023-04-01T22:17:18.057Z,73.57
2023-04-01T22:19:56.923Z,73.36
2023-04-01T22:22:51.395Z,73.61
2023-04-01T22:25:36.356Z,73.76
2023-04-01T22:28:13.965Z,73.82
2023-04-01T22:30:50.261Z,73.74
2023-04-01T22:33:23.111Z,73.66
2023-04-01T22:36:06.986Z,73.93
2023-04-01T22:38:40.453Z,73.77
2023-04-01T22:41:20.205Z,73.84
2023-04-01T22:43:49.874Z,73.87
2023-04-01T22:46:28.834Z,73.98
2023-04-01T22:49:06.339Z,74.16
2023-04-01T22:52:08.782Z,74.42
2023-04-01T22:54:45.761Z,74.30
2023-04-01T22:57:40.692Z,74.25
2023-04-01T23:00:17.172Z,74.38
2023-04-01T23:02:49.560Z,74.20
2023-04-01T23:05:22.417Z,74.28
2023-04-01T23:08:07.056Z,74.56
2023-04-01T23:10:49.150Z,74.65
2023-04-01T23:13:26.448Z,74.75
2023-04-01T23:15:56.158Z,75.04
2023-04-01T23:18:29.854Z,75.19
2023-04-01T23:21:15.378Z,75.73
2023-04-01T23:24:13.830Z,75.99
2023-04-01T23:26:41.392Z,76.54
2023-04-01T23:29:17.504Z,77.48
2023-04-01T23:31:58.643Z,77.44
2023-04-01T23:34:33.452Z,77.53
2023-04-01T23:37:06.346Z,77.75
2023-04-01T23:39:41.652Z,78.12
2023-04-01T23:42:16.808Z,78.87
2023-04-01T23:44:45.456Z,79.04
2023-04-01T23:47:37.455Z,79.43
2023-04-01T23:50:26.389Z,78.99
2023-04-01T23:53:18.735Z,79.66
2023-04-01T23:55:46.407Z,79.69
2023-04-01T23:58:29.168Z,79.79
